Time;durP1;ratioP1;P1;durP2;ratioP2;P2;SDS_P1;SDS_P2;PMS_P1;PMS_P2;Temp;Humidity;BMP_temperature;BMP_pressure;BME280_temperature;BME280_humidity;BME280_pressure;Samples;Min_cycle;Max_cycle;Signal;HPM_P1;HPM_P2
2021/05/19 09:44:34;;;;;;;4.28;2.08;;;;;;;16.08;55.27;99138.28;5150188;27;20399;-86
2021/05/19 09:47:00;;;;;;;4.70;1.20;;;;;;;15.19;54.86;99149.03;5148114;27;20051;-87
2021/05/19 09:49:30;;;;;;;4.18;1.35;;;;;;;14.29;56.07;99156.91;5131493;27;20078;-88
2021/05/19 09:51:58;;;;;;;3.67;1.38;;;;;;;13.71;58.31;99141.84;5127134;27;20047;-87
2021/05/19 09:54:32;;;;;;;5.78;2.10;;;;;;;13.47;59.52;99162.38;5129404;27;20051;-86
2021/05/19 09:57:00;;;;;;;7.50;1.40;;;;;;;13.51;59.91;99147.25;5130234;27;20055;-86
2021/05/19 09:59:27;;;;;;;6.25;1.33;;;;;;;13.42;61.13;99148.50;5118219;27;20082;-86
2021/05/19 10:01:57;;;;;;;5.80;2.33;;;;;;;13.62;60.38;99133.03;5119579;27;20111;-86
2021/05/19 10:04:27;;;;;;;3.95;1.77;;;;;;;14.36;55.60;99143.22;5129750;27;20046;-87
2021/05/19 10:06:56;;;;;;;6.13;4.05;;;;;;;14.56;55.41;99149.53;5129084;27;20039;-87
2021/05/19 10:09:27;;;;;;;19.00;2.97;;;;;;;14.16;55.83;99152.25;5129174;27;20130;-85
2021/05/19 10:11:58;;;;;;;7.32;1.45;;;;;;;14.41;56.20;99135.25;5128283;27;20059;-85
2021/05/19 10:14:25;;;;;;;5.07;0.98;;;;;;;14.80;51.14;99131.66;5129317;27;20068;-85
2021/05/19 10:17:00;;;;;;;2.65;0.70;;;;;;;15.16;48.33;99132.19;5114392;28;20044;-86
2021/05/19 10:19:31;;;;;;;1.85;0.70;;;;;;;15.43;45.83;99124.72;5123228;28;20431;-85
2021/05/19 10:22:16;;;;;;;2.03;0.73;;;;;;;15.96;44.38;99114.53;5129121;28;20071;-86
2021/05/19 10:24:46;;;;;;;2.47;0.63;;;;;;;16.00;42.89;99108.38;5129155;27;20080;-86
2021/05/19 10:27:14;;;;;;;8.13;0.77;;;;;;;16.21;42.62;99095.38;5129220;27;20108;-87
2021/05/19 10:30:00;;;;;;;1.35;1.08;;;;;;;16.27;42.70;99105.44;5128275;27;20402;-84
2021/05/19 10:32:36;;;;;;;0.85;0.70;;;;;;;16.39;41.43;99105.56;5129607;27;20058;-87
2021/05/19 10:35:06;;;;;;;3.15;0.80;;;;;;;16.48;45.66;99101.47;5127567;27;20104;-86
2021/05/19 10:37:50;;;;;;;;;;;;;;;15.92;43.87;99117.72;5120071;27;20074;-85
2021/05/19 10:40:30;;;;;;;4.32;0.93;;;;;;;15.63;45.28;99105.44;5129211;27;19919;-84
2021/05/19 10:43:04;;;;;;;1.98;1.20;;;;;;;15.48;47.03;99126.81;5127869;27;20046;-85
2021/05/19 10:45:47;;;;;;;1.67;1.08;;;;;;;15.48;44.86;99111.22;5108414;28;20051;-84
2021/05/19 10:48:35;;;;;;;2.58;1.83;;;;;;;16.16;46.65;99085.06;5126986;27;20058;-85
2021/05/19 10:51:31;;;;;;;3.08;1.65;;;;;;;16.55;43.29;99079.47;5128917;27;20062;-86
2021/05/19 11:00:10;;;;;;;3.00;1.40;;;;;;;16.48;42.97;99108.88;5114075;28;20058;-85
2021/05/19 11:03:14;;;;;;;3.83;1.13;;;;;;;16.58;44.45;99103.72;5109611;28;20065;-87
2021/05/19 11:06:05;;;;;;;4.80;0.90;;;;;;;16.26;41.68;99101.88;5113566;27;20059;-85
2021/05/19 11:08:34;;;;;;;0.65;0.65;;;;;;;15.34;44.06;99088.53;5115394;28;20562;-86
2021/05/19 11:11:29;;;;;;;0.60;0.60;;;;;;;15.16;42.21;99069.19;5115787;27;20043;-87
2021/05/19 11:14:28;;;;;;;1.45;0.70;;;;;;;15.92;39.23;99075.78;5115086;28;20051;-86
2021/05/19 11:17:14;;;;;;;0.60;0.50;;;;;;;16.03;38.93;99074.22;5108687;28;20488;-86
2021/05/19 11:19:40;;;;;;;2.83;0.68;;;;;;;16.41;39.90;99070.50;5098710;28;20055;-83
2021/05/19 11:22:11;;;;;;;0.85;0.60;;;;;;;16.90;39.08;99067.94;5110862;28;20476;-85
2021/05/19 11:24:57;;;;;;;4.93;0.95;;;;;;;16.99;37.80;99070.13;5115323;28;20444;-86
2021/05/19 11:27:26;;;;;;;4.00;0.50;;;;;;;17.32;37.84;99060.66;5105979;27;20423;-87
2021/05/19 11:29:54;;;;;;;1.90;0.82;;;;;;;17.17;39.94;99058.31;5115154;27;20062;-86
2021/05/19 11:32:23;;;;;;;1.92;0.73;;;;;;;17.40;40.12;99061.41;5110168;28;20061;-88
2021/05/19 11:34:56;;;;;;;2.55;0.88;;;;;;;17.51;39.65;99047.72;5097529;28;20056;-88
2021/05/19 11:37:57;;;;;;;1.70;0.40;;;;;;;17.49;38.18;99063.63;5114997;27;20052;-88
2021/05/19 11:40:37;;;;;;;1.50;0.70;;;;;;;17.56;37.95;99065.44;5115327;28;20052;-85
2021/05/19 11:43:05;;;;;;;1.85;1.08;;;;;;;17.30;38.96;99048.22;5114276;27;20064;-88
2021/05/19 11:45:33;;;;;;;3.60;0.60;;;;;;;16.97;40.54;99033.84;5115059;28;20071;-88
2021/05/19 11:48:01;;;;;;;1.85;0.90;;;;;;;17.46;39.17;99054.97;5114924;28;20073;-87
2021/05/19 11:50:30;;;;;;;3.78;0.75;;;;;;;17.66;41.21;99046.47;5107882;28;20058;-89
2021/05/19 11:53:05;;;;;;;1.13;0.63;;;;;;;17.94;40.36;99037.59;5114969;27;20418;-89
2021/05/19 11:55:35;;;;;;;2.40;0.82;;;;;;;17.62;36.12;99039.75;5112842;27;20558;-88
2021/05/19 11:58:08;;;;;;;2.28;0.93;;;;;;;17.72;37.31;99048.28;5111233;28;20498;-87
2021/05/19 12:00:39;;;;;;;2.25;0.88;;;;;;;17.92;39.14;99052.66;5111799;28;20134;-88
2021/05/19 12:09:46;;;;;;;1.85;0.73;;;;;;;17.41;39.74;99049.34;4986303;28;20053;-88
2021/05/19 12:12:42;;;;;;;;;;;;;;;;;;;;;
2021/05/19 12:15:19;;;;;;;1.60;0.93;;;;;;;17.32;33.72;99046.91;5114071;28;20051;-90
2021/05/19 12:17:45;;;;;;;0.77;0.70;;;;;;;16.98;35.22;99042.91;5114792;27;20051;-87
2021/05/19 12:20:40;;;;;;;1.95;1.05;;;;;;;17.13;35.46;99034.28;5114317;27;20497;-88
2021/05/19 12:23:46;;;;;;;;;;;;;;;;;;;;;
2021/05/19 12:30:25;;;;;;;1.45;1.10;;;;;;;17.59;39.32;99029.22;5108599;28;20047;-88
2021/05/19 12:33:46;;;;;;;;;;;;;;;;;;;;;
2021/05/19 12:48:52;;;;;;;1.88;0.90;;;;;;;18.39;37.32;99039.78;5029630;22;20111;-89
2021/05/19 12:52:25;;;;;;;;;;;;;;;;;;;;;
2021/05/19 13:08:41;;;;;;;0.93;0.60;;;;;;;18.65;34.99;99047.78;4990627;28;20062;-87
2021/05/19 13:21:19;;;;;;;2.97;0.90;;;;;;;18.45;33.96;99037.16;4940576;29;20062;-88
2021/05/19 13:24:27;;;;;;;2.05;1.00;;;;;;;18.24;34.20;99028.41;4947957;29;20047;-87
2021/05/19 13:27:12;;;;;;;0.93;0.52;;;;;;;18.17;34.40;99030.44;4952162;28;20551;-88
2021/05/19 13:30:02;;;;;;;1.52;0.80;;;;;;;18.14;35.71;99042.78;4984521;28;20136;-87
2021/05/19 13:38:54;;;;;;;2.20;0.85;;;;;;;19.05;35.36;99022.25;4919591;29;20066;-88
2021/05/19 13:41:46;;;;;;;2.03;0.80;;;;;;;19.12;35.96;99016.59;5013841;28;20137;-89
2021/05/19 13:44:13;;;;;;;1.17;0.77;;;;;;;18.96;35.41;99023.72;5010728;28;20050;-88
2021/05/19 13:46:50;;;;;;;3.40;0.80;;;;;;;19.26;35.40;99004.22;5011966;28;20046;-89
2021/05/19 13:49:23;;;;;;;1.85;0.70;;;;;;;18.88;34.04;99013.94;5007809;28;20058;-88
2021/05/19 13:52:06;;;;;;;4.38;0.70;;;;;;;18.71;33.95;99014.66;5001547;28;20104;-87
2021/05/19 13:54:42;;;;;;;4.60;0.93;;;;;;;19.15;35.33;99029.88;5013658;28;20397;-88
2021/05/19 13:57:09;;;;;;;1.77;0.90;;;;;;;18.62;35.72;99032.59;5012541;28;20678;-88
2021/05/19 13:59:39;;;;;;;3.35;0.82;;;;;;;18.91;35.48;99025.28;5004757;28;20062;-88
2021/05/19 14:02:09;;;;;;;4.30;1.37;;;;;;;19.19;34.97;99014.53;5000787;28;20070;-88
2021/05/19 14:04:38;;;;;;;2.03;0.80;;;;;;;19.22;34.47;99023.16;5011860;28;20695;-88
2021/05/19 14:07:05;;;;;;;5.32;1.00;;;;;;;18.93;34.99;99006.59;5011469;28;20049;-88
2021/05/19 14:09:31;;;;;;;1.63;0.80;;;;;;;19.35;33.95;99011.00;5001650;28;20058;-88
2021/05/19 14:12:05;;;;;;;4.35;1.50;;;;;;;19.11;35.07;98999.25;5006888;28;20057;-88
2021/05/19 14:14:40;;;;;;;2.13;0.85;;;;;;;18.80;34.95;99017.00;5006478;28;20499;-85
2021/05/19 14:17:18;;;;;;;3.58;1.40;;;;;;;18.78;36.80;99028.28;5013474;28;20144;-86
2021/05/19 14:28:09;;;;;;;2.65;1.00;;;;;;;16.87;39.95;99016.22;5000477;28;20081;-86
2021/05/19 14:30:35;;;;;;;1.83;1.00;;;;;;;17.06;39.25;99041.78;5003034;28;20433;-85
2021/05/19 14:33:01;;;;;;;1.92;0.80;;;;;;;16.85;41.06;99045.81;5014215;28;20069;-85
2021/05/19 15:00:32;;;;;;;2.15;0.65;;;;;;;16.85;48.87;99090.56;5014470;28;20084;-86
2021/05/19 15:02:58;;;;;;;3.65;0.55;;;;;;;16.56;47.36;99087.47;5015053;28;20111;-85
2021/05/19 15:05:25;;;;;;;2.88;0.47;;;;;;;16.57;48.42;99080.06;5015979;28;20058;-87
2021/05/19 15:07:51;;;;;;;3.50;0.77;;;;;;;16.31;47.38;99090.22;5015985;28;20494;-85
2021/05/19 15:10:18;;;;;;;2.50;0.60;;;;;;;16.30;48.63;99104.16;5015050;28;20694;-87
2021/05/19 15:12:44;;;;;;;3.72;0.85;;;;;;;16.22;48.84;99108.03;5014788;28;20132;-87
2021/05/19 15:15:15;;;;;;;4.57;0.50;;;;;;;16.00;49.71;99121.25;5012624;28;20137;-86
2021/05/19 15:17:42;;;;;;;5.10;0.70;;;;;;;15.40;50.06;99115.03;4996377;28;20054;-85
2021/05/19 15:20:10;;;;;;;2.50;0.90;;;;;;;15.01;51.14;99107.81;5013353;28;20115;-87
2021/05/19 15:22:36;;;;;;;4.35;0.77;;;;;;;14.79;52.86;99116.28;5013851;28;20541;-85
2021/05/19 15:25:08;;;;;;;3.08;0.70;;;;;;;14.57;53.12;99114.81;5013989;28;20063;-86
2021/05/19 15:27:43;;;;;;;1.05;0.60;;;;;;;14.71;52.91;99119.25;4996353;28;20126;-85
2021/05/19 15:30:14;;;;;;;3.28;0.68;;;;;;;14.67;52.91;99132.50;5009981;28;20058;-87
2021/05/19 15:32:40;;;;;;;1.27;0.55;;;;;;;14.36;53.22;99119.44;5012815;28;20056;-87
2021/05/19 15:35:09;;;;;;;4.47;0.88;;;;;;;14.18;53.42;99116.50;5013759;28;20588;-85
2021/05/19 15:37:38;;;;;;;2.42;0.80;;;;;;;13.99;53.69;99108.91;5014814;28;20050;-86
2021/05/19 15:40:10;;;;;;;3.08;0.70;;;;;;;14.06;54.24;99113.53;5014586;28;20453;-86
2021/05/19 15:42:36;;;;;;;1.40;0.65;;;;;;;14.25;53.51;99107.25;5014682;28;20046;-84
2021/05/19 15:45:05;;;;;;;1.52;0.50;;;;;;;14.38;54.18;99127.44;5003347;28;20050;-87
2021/05/19 15:47:33;;;;;;;3.00;0.55;;;;;;;14.51;53.78;99117.34;5013089;28;20064;-87
2021/05/19 15:50:03;;;;;;;0.93;0.63;;;;;;;14.31;53.54;99097.38;5016290;28;20050;-86
2021/05/19 15:52:42;;;;;;;2.67;1.00;;;;;;;14.30;52.63;99103.88;5012796;28;20065;-85
2021/05/19 15:55:15;;;;;;;3.45;0.90;;;;;;;14.09;53.61;99103.06;5007887;28;20616;-85
2021/05/19 15:58:07;;;;;;;3.17;0.98;;;;;;;14.09;54.45;99116.72;5015074;28;20054;-86
